sensor_id;sensor_type;location;lat;lon;timestamp;P1;durP1;ratioP1;P2;durP2;ratioP2
70667;SDS011;58242;51.250;-1.118;2022-10-31T00:00:13;3.28;;;2.10;;
70667;SDS011;58242;51.250;-1.118;2022-10-31T00:02:38;2.45;;;1.90;;
70667;SDS011;58242;51.250;-1.118;2022-10-31T00:05:03;4.40;;;2.20;;
70667;SDS011;58242;51.250;-1.118;2022-10-31T00:07:29;2.42;;;1.80;;
70667;SDS011;58242;51.250;-1.118;2022-10-31T00:09:54;1.95;;;1.75;;
70667;SDS011;58242;51.250;-1.118;2022-10-31T00:12:19;2.42;;;1.60;;
70667;SDS011;58242;51.250;-1.118;2022-10-31T00:14:45;2.08;;;1.80;;
70667;SDS011;58242;51.250;-1.118;2022-10-31T00:17:10;1.90;;;1.73;;
70667;SDS011;58242;51.250;-1.118;2022-10-31T00:19:35;2.55;;;1.70;;
70667;SDS011;58242;51.250;-1.118;2022-10-31T00:22:00;2.15;;;1.70;;
70667;SDS011;58242;51.250;-1.118;2022-10-31T00:24:26;1.70;;;1.60;;
70667;SDS011;58242;51.250;-1.118;2022-10-31T00:26:51;1.55;;;1.40;;
70667;SDS011;58242;51.250;-1.118;2022-10-31T00:29:16;1.70;;;1.60;;
70667;SDS011;58242;51.250;-1.118;2022-10-31T00:31:42;1.70;;;1.60;;
70667;SDS011;58242;51.250;-1.118;2022-10-31T00:34:07;2.13;;;1.50;;
70667;SDS011;58242;51.250;-1.118;2022-10-31T00:36:32;2.78;;;1.80;;
70667;SDS011;58242;51.250;-1.118;2022-10-31T00:38:58;1.40;;;1.30;;
70667;SDS011;58242;51.250;-1.118;2022-10-31T00:41:23;1.70;;;1.60;;
70667;SDS011;58242;51.250;-1.118;2022-10-31T00:43:48;2.55;;;1.48;;
70667;SDS011;58242;51.250;-1.118;2022-10-31T00:46:14;4.22;;;2.10;;
70667;SDS011;58242;51.250;-1.118;2022-10-31T00:48:39;1.70;;;1.60;;
70667;SDS011;58242;51.250;-1.118;2022-10-31T00:51:05;2.75;;;1.90;;
70667;SDS011;58242;51.250;-1.118;2022-10-31T00:53:30;1.50;;;1.40;;
70667;SDS011;58242;51.250;-1.118;2022-10-31T00:55:55;2.08;;;1.67;;
70667;SDS011;58242;51.250;-1.118;2022-10-31T00:58:21;1.90;;;1.40;;
70667;SDS011;58242;51.250;-1.118;2022-10-31T01:00:47;3.88;;;1.88;;
70667;SDS011;58242;51.250;-1.118;2022-10-31T01:03:19;3.92;;;2.30;;
70667;SDS011;58242;51.250;-1.118;2022-10-31T01:05:59;3.95;;;1.83;;
70667;SDS011;58242;51.250;-1.118;2022-10-31T01:08:27;1.60;;;1.50;;
70667;SDS011;58242;51.250;-1.118;2022-10-31T01:11:07;1.45;;;1.42;;
70667;SDS011;58242;51.250;-1.118;2022-10-31T01:13:36;4.20;;;2.10;;
70667;SDS011;58242;51.250;-1.118;2022-10-31T01:16:01;2.47;;;2.00;;
70667;SDS011;58242;51.250;-1.118;2022-10-31T01:18:28;2.30;;;1.83;;
70667;SDS011;58242;51.250;-1.118;2022-10-31T01:21:02;2.63;;;1.63;;
70667;SDS011;58242;51.250;-1.118;2022-10-31T01:23:36;1.60;;;1.50;;
70667;SDS011;58242;51.250;-1.118;2022-10-31T01:26:12;1.40;;;1.40;;
70667;SDS011;58242;51.250;-1.118;2022-10-31T01:28:50;1.25;;;1.25;;
70667;SDS011;58242;51.250;-1.118;2022-10-31T01:31:20;1.65;;;1.55;;
70667;SDS011;58242;51.250;-1.118;2022-10-31T01:33:47;2.92;;;1.67;;
70667;SDS011;58242;51.250;-1.118;2022-10-31T01:36:15;2.67;;;1.63;;
70667;SDS011;58242;51.250;-1.118;2022-10-31T01:38:40;1.65;;;1.55;;
70667;SDS011;58242;51.250;-1.118;2022-10-31T01:41:06;1.40;;;1.30;;
70667;SDS011;58242;51.250;-1.118;2022-10-31T01:46:22;1.20;;;1.20;;
70667;SDS011;58242;51.250;-1.118;2022-10-31T01:48:54;1.60;;;1.50;;
70667;SDS011;58242;51.250;-1.118;2022-10-31T01:51:22;1.50;;;1.40;;
70667;SDS011;58242;51.250;-1.118;2022-10-31T01:53:50;3.03;;;1.50;;
70667;SDS011;58242;51.250;-1.118;2022-10-31T01:56:20;1.55;;;1.40;;
70667;SDS011;58242;51.250;-1.118;2022-10-31T01:58:46;1.83;;;1.40;;
70667;SDS011;58242;51.250;-1.118;2022-10-31T02:01:11;1.88;;;1.67;;
70667;SDS011;58242;51.250;-1.118;2022-10-31T02:03:38;2.35;;;1.40;;
70667;SDS011;58242;51.250;-1.118;2022-10-31T02:06:04;2.80;;;1.60;;
70667;SDS011;58242;51.250;-1.118;2022-10-31T02:08:35;1.65;;;1.55;;
70667;SDS011;58242;51.250;-1.118;2022-10-31T02:11:02;1.55;;;1.35;;
70667;SDS011;58242;51.250;-1.118;2022-10-31T02:13:28;1.90;;;1.63;;
70667;SDS011;58242;51.250;-1.118;2022-10-31T02:15:55;1.38;;;1.38;;
70667;SDS011;58242;51.250;-1.118;2022-10-31T02:18:23;1.20;;;1.20;;
70667;SDS011;58242;51.250;-1.118;2022-10-31T02:29:08;1.20;;;1.20;;
70667;SDS011;58242;51.250;-1.118;2022-10-31T02:40:24;1.67;;;1.58;;
70667;SDS011;58242;51.250;-1.118;2022-10-31T02:45:35;1.40;;;1.33;;
70667;SDS011;58242;51.250;-1.118;2022-10-31T02:48:10;2.03;;;1.60;;
70667;SDS011;58242;51.250;-1.118;2022-10-31T02:50:43;1.85;;;1.52;;
70667;SDS011;58242;51.250;-1.118;2022-10-31T02:53:15;1.83;;;1.45;;
70667;SDS011;58242;51.250;-1.118;2022-10-31T02:55:49;2.03;;;1.58;;
70667;SDS011;58242;51.250;-1.118;2022-10-31T02:58:21;1.65;;;1.55;;
70667;SDS011;58242;51.250;-1.118;2022-10-31T03:03:17;1.40;;;1.40;;
70667;SDS011;58242;51.250;-1.118;2022-10-31T03:08:42;3.13;;;1.70;;
70667;SDS011;58242;51.250;-1.118;2022-10-31T03:11:20;1.60;;;1.50;;
70667;SDS011;58242;51.250;-1.118;2022-10-31T03:13:54;1.63;;;1.50;;
70667;SDS011;58242;51.250;-1.118;2022-10-31T03:24:17;1.80;;;1.70;;
70667;SDS011;58242;51.250;-1.118;2022-10-31T03:26:46;1.75;;;1.40;;
70667;SDS011;58242;51.250;-1.118;2022-10-31T03:29:16;1.50;;;1.40;;
70667;SDS011;58242;51.250;-1.118;2022-10-31T03:34:14;1.45;;;1.35;;
70667;SDS011;58242;51.250;-1.118;2022-10-31T03:36:41;1.40;;;1.40;;
70667;SDS011;58242;51.250;-1.118;2022-10-31T03:39:09;3.15;;;1.80;;
70667;SDS011;58242;51.250;-1.118;2022-10-31T03:41:40;1.52;;;1.42;;
70667;SDS011;58242;51.250;-1.118;2022-10-31T03:44:10;1.50;;;1.50;;
70667;SDS011;58242;51.250;-1.118;2022-10-31T03:46:40;2.05;;;1.80;;
70667;SDS011;58242;51.250;-1.118;2022-10-31T03:49:06;1.67;;;1.58;;
70667;SDS011;58242;51.250;-1.118;2022-10-31T03:54:24;1.60;;;1.50;;
70667;SDS011;58242;51.250;-1.118;2022-10-31T03:57:22;1.70;;;1.60;;
70667;SDS011;58242;51.250;-1.118;2022-10-31T04:00:04;1.45;;;1.35;;
70667;SDS011;58242;51.250;-1.118;2022-10-31T04:02:33;1.55;;;1.45;;
70667;SDS011;58242;51.250;-1.118;2022-10-31T04:05:03;2.20;;;1.50;;
70667;SDS011;58242;51.250;-1.118;2022-10-31T04:07:30;1.65;;;1.45;;
70667;SDS011;58242;51.250;-1.118;2022-10-31T04:10:00;7.55;;;1.85;;
70667;SDS011;58242;51.250;-1.118;2022-10-31T04:12:28;1.55;;;1.48;;
70667;SDS011;58242;51.250;-1.118;2022-10-31T04:14:56;1.30;;;1.25;;
70667;SDS011;58242;51.250;-1.118;2022-10-31T04:17:23;1.42;;;1.42;;
70667;SDS011;58242;51.250;-1.118;2022-10-31T04:19:50;1.30;;;1.30;;
70667;SDS011;58242;51.250;-1.118;2022-10-31T04:22:16;1.67;;;1.58;;
70667;SDS011;58242;51.250;-1.118;2022-10-31T04:24:41;1.40;;;1.30;;
70667;SDS011;58242;51.250;-1.118;2022-10-31T04:27:06;1.40;;;1.30;;
70667;SDS011;58242;51.250;-1.118;2022-10-31T04:29:32;1.73;;;1.45;;
70667;SDS011;58242;51.250;-1.118;2022-10-31T04:31:57;1.70;;;1.60;;
70667;SDS011;58242;51.250;-1.118;2022-10-31T04:34:22;1.95;;;1.52;;
70667;SDS011;58242;51.250;-1.118;2022-10-31T04:36:48;1.75;;;1.65;;
70667;SDS011;58242;51.250;-1.118;2022-10-31T04:39:13;1.80;;;1.70;;
70667;SDS011;58242;51.250;-1.118;2022-10-31T04:41:38;1.70;;;1.60;;
70667;SDS011;58242;51.250;-1.118;2022-10-31T04:44:04;1.63;;;1.52;;
70667;SDS011;58242;51.250;-1.118;2022-10-31T04:46:29;3.22;;;2.00;;
70667;SDS011;58242;51.250;-1.118;2022-10-31T04:48:54;1.50;;;1.50;;
70667;SDS011;58242;51.250;-1.118;2022-10-31T04:51:20;1.52;;;1.42;;
70667;SDS011;58242;51.250;-1.118;2022-10-31T04:53:45;1.63;;;1.52;;
70667;SDS011;58242;51.250;-1.118;2022-10-31T04:56:10;1.85;;;1.75;;
70667;SDS011;58242;51.250;-1.118;2022-10-31T04:58:36;1.52;;;1.50;;
70667;SDS011;58242;51.250;-1.118;2022-10-31T05:01:01;1.52;;;1.42;;
70667;SDS011;58242;51.250;-1.118;2022-10-31T05:03:26;1.27;;;1.27;;
70667;SDS011;58242;51.250;-1.118;2022-10-31T05:05:52;1.85;;;1.55;;
70667;SDS011;58242;51.250;-1.118;2022-10-31T05:08:17;1.60;;;1.50;;
70667;SDS011;58242;51.250;-1.118;2022-10-31T05:10:42;1.48;;;1.48;;
70667;SDS011;58242;51.250;-1.118;2022-10-31T05:13:08;1.73;;;1.40;;
70667;SDS011;58242;51.250;-1.118;2022-10-31T05:15:33;1.40;;;1.30;;
70667;SDS011;58242;51.250;-1.118;2022-10-31T05:17:59;1.50;;;1.40;;
70667;SDS011;58242;51.250;-1.118;2022-10-31T05:20:25;1.95;;;1.30;;
70667;SDS011;58242;51.250;-1.118;2022-10-31T05:22:53;1.50;;;1.40;;
70667;SDS011;58242;51.250;-1.118;2022-10-31T05:25:21;3.45;;;1.95;;
70667;SDS011;58242;51.250;-1.118;2022-10-31T05:27:49;2.85;;;1.30;;
70667;SDS011;58242;51.250;-1.118;2022-10-31T05:30:16;1.30;;;1.25;;
70667;SDS011;58242;51.250;-1.118;2022-10-31T05:32:44;1.93;;;1.83;;
70667;SDS011;58242;51.250;-1.118;2022-10-31T05:35:15;3.72;;;1.52;;
70667;SDS011;58242;51.250;-1.118;2022-10-31T05:37:44;3.00;;;1.73;;
70667;SDS011;58242;51.250;-1.118;2022-10-31T05:40:10;2.17;;;1.83;;
70667;SDS011;58242;51.250;-1.118;2022-10-31T05:42:40;3.05;;;1.63;;
70667;SDS011;58242;51.250;-1.118;2022-10-31T05:45:07;2.78;;;1.70;;
70667;SDS011;58242;51.250;-1.118;2022-10-31T05:47:34;1.70;;;1.60;;
70667;SDS011;58242;51.250;-1.118;2022-10-31T05:49:59;1.50;;;1.50;;
70667;SDS011;58242;51.250;-1.118;2022-10-31T05:52:24;2.00;;;1.90;;
70667;SDS011;58242;51.250;-1.118;2022-10-31T05:54:50;3.25;;;1.63;;
70667;SDS011;58242;51.250;-1.118;2022-10-31T05:57:15;1.75;;;1.65;;
70667;SDS011;58242;51.250;-1.118;2022-10-31T05:59:40;2.30;;;1.80;;
70667;SDS011;58242;51.250;-1.118;2022-10-31T06:02:06;1.88;;;1.67;;
70667;SDS011;58242;51.250;-1.118;2022-10-31T06:04:31;1.80;;;1.70;;
70667;SDS011;58242;51.250;-1.118;2022-10-31T06:06:57;1.92;;;1.83;;
70667;SDS011;58242;51.250;-1.118;2022-10-31T06:09:22;2.00;;;1.80;;
70667;SDS011;58242;51.250;-1.118;2022-10-31T06:11:48;1.40;;;1.40;;
70667;SDS011;58242;51.250;-1.118;2022-10-31T06:14:13;1.67;;;1.50;;
70667;SDS011;58242;51.250;-1.118;2022-10-31T06:16:38;2.45;;;1.60;;
70667;SDS011;58242;51.250;-1.118;2022-10-31T06:19:04;2.15;;;1.80;;
70667;SDS011;58242;51.250;-1.118;2022-10-31T06:21:29;2.30;;;1.80;;
70667;SDS011;58242;51.250;-1.118;2022-10-31T06:23:54;2.00;;;1.80;;
70667;SDS011;58242;51.250;-1.118;2022-10-31T06:26:20;2.05;;;1.88;;
70667;SDS011;58242;51.250;-1.118;2022-10-31T06:28:45;2.10;;;1.90;;
70667;SDS011;58242;51.250;-1.118;2022-10-31T06:31:10;1.75;;;1.65;;
70667;SDS011;58242;51.250;-1.118;2022-10-31T06:33:35;1.73;;;1.63;;
70667;SDS011;58242;51.250;-1.118;2022-10-31T06:36:01;1.83;;;1.73;;
70667;SDS011;58242;51.250;-1.118;2022-10-31T06:38:27;1.88;;;1.73;;
70667;SDS011;58242;51.250;-1.118;2022-10-31T06:40:53;2.13;;;1.95;;
70667;SDS011;58242;51.250;-1.118;2022-10-31T06:43:19;2.00;;;1.80;;
70667;SDS011;58242;51.250;-1.118;2022-10-31T06:45:45;1.77;;;1.67;;
70667;SDS011;58242;51.250;-1.118;2022-10-31T06:48:10;2.08;;;1.70;;
70667;SDS011;58242;51.250;-1.118;2022-10-31T06:50:36;1.90;;;1.80;;
70667;SDS011;58242;51.250;-1.118;2022-10-31T06:53:01;1.60;;;1.50;;
70667;SDS011;58242;51.250;-1.118;2022-10-31T06:55:27;2.03;;;1.90;;
70667;SDS011;58242;51.250;-1.118;2022-10-31T06:57:52;1.77;;;1.67;;
70667;SDS011;58242;51.250;-1.118;2022-10-31T07:00:19;3.15;;;1.98;;
70667;SDS011;58242;51.250;-1.118;2022-10-31T07:02:55;2.35;;;2.10;;
70667;SDS011;58242;51.250;-1.118;2022-10-31T07:05:21;2.55;;;2.35;;
70667;SDS011;58242;51.250;-1.118;2022-10-31T07:07:47;3.83;;;2.53;;
70667;SDS011;58242;51.250;-1.118;2022-10-31T07:10:12;4.97;;;2.75;;
70667;SDS011;58242;51.250;-1.118;2022-10-31T07:12:38;2.10;;;1.95;;
70667;SDS011;58242;51.250;-1.118;2022-10-31T07:15:03;2.10;;;2.00;;
70667;SDS011;58242;51.250;-1.118;2022-10-31T07:17:29;2.63;;;1.90;;
70667;SDS011;58242;51.250;-1.118;2022-10-31T07:19:54;3.40;;;2.40;;
70667;SDS011;58242;51.250;-1.118;2022-10-31T07:22:19;3.75;;;2.15;;
70667;SDS011;58242;51.250;-1.118;2022-10-31T07:24:45;3.63;;;2.13;;
70667;SDS011;58242;51.250;-1.118;2022-10-31T07:27:10;2.30;;;2.08;;
70667;SDS011;58242;51.250;-1.118;2022-10-31T07:29:35;1.95;;;1.85;;
70667;SDS011;58242;51.250;-1.118;2022-10-31T07:32:01;5.68;;;1.80;;
70667;SDS011;58242;51.250;-1.118;2022-10-31T07:34:26;2.30;;;1.88;;
70667;SDS011;58242;51.250;-1.118;2022-10-31T07:36:52;3.13;;;1.80;;
70667;SDS011;58242;51.250;-1.118;2022-10-31T07:39:17;1.90;;;1.80;;
70667;SDS011;58242;51.250;-1.118;2022-10-31T07:41:42;2.28;;;2.10;;
70667;SDS011;58242;51.250;-1.118;2022-10-31T07:44:08;2.40;;;2.00;;
70667;SDS011;58242;51.250;-1.118;2022-10-31T07:46:33;2.20;;;1.88;;
70667;SDS011;58242;51.250;-1.118;2022-10-31T07:48:58;3.90;;;2.00;;
70667;SDS011;58242;51.250;-1.118;2022-10-31T07:51:24;5.28;;;2.28;;
70667;SDS011;58242;51.250;-1.118;2022-10-31T07:53:49;3.00;;;2.20;;
70667;SDS011;58242;51.250;-1.118;2022-10-31T07:56:14;2.60;;;2.10;;
70667;SDS011;58242;51.250;-1.118;2022-10-31T07:58:40;2.50;;;2.30;;
70667;SDS011;58242;51.250;-1.118;2022-10-31T08:01:05;2.30;;;2.10;;
70667;SDS011;58242;51.250;-1.118;2022-10-31T08:03:30;2.35;;;2.15;;
70667;SDS011;58242;51.250;-1.118;2022-10-31T08:05:56;2.45;;;2.35;;
70667;SDS011;58242;51.250;-1.118;2022-10-31T08:08:21;2.50;;;2.20;;
70667;SDS011;58242;51.250;-1.118;2022-10-31T08:10:49;2.50;;;2.30;;
70667;SDS011;58242;51.250;-1.118;2022-10-31T08:13:14;2.42;;;2.22;;
70667;SDS011;58242;51.250;-1.118;2022-10-31T08:15:39;2.33;;;1.83;;
70667;SDS011;58242;51.250;-1.118;2022-10-31T08:18:07;2.30;;;2.10;;
70667;SDS011;58242;51.250;-1.118;2022-10-31T08:20:36;2.13;;;2.00;;
70667;SDS011;58242;51.250;-1.118;2022-10-31T08:23:03;2.25;;;2.15;;
70667;SDS011;58242;51.250;-1.118;2022-10-31T08:25:31;4.88;;;2.78;;
70667;SDS011;58242;51.250;-1.118;2022-10-31T08:27:57;2.58;;;2.22;;
70667;SDS011;58242;51.250;-1.118;2022-10-31T08:30:24;3.85;;;2.20;;
70667;SDS011;58242;51.250;-1.118;2022-10-31T08:33:10;3.20;;;2.08;;
70667;SDS011;58242;51.250;-1.118;2022-10-31T08:35:37;3.40;;;2.85;;
70667;SDS011;58242;51.250;-1.118;2022-10-31T08:38:02;2.63;;;2.50;;
70667;SDS011;58242;51.250;-1.118;2022-10-31T08:40:28;3.55;;;2.58;;
70667;SDS011;58242;51.250;-1.118;2022-10-31T08:43:02;4.15;;;2.50;;
70667;SDS011;58242;51.250;-1.118;2022-10-31T08:45:29;4.13;;;2.30;;
70667;SDS011;58242;51.250;-1.118;2022-10-31T08:47:56;2.45;;;1.65;;
70667;SDS011;58242;51.250;-1.118;2022-10-31T08:50:22;3.63;;;2.33;;
70667;SDS011;58242;51.250;-1.118;2022-10-31T08:52:48;2.22;;;2.03;;
70667;SDS011;58242;51.250;-1.118;2022-10-31T08:55:13;2.35;;;2.15;;
70667;SDS011;58242;51.250;-1.118;2022-10-31T08:57:39;3.00;;;1.85;;
70667;SDS011;58242;51.250;-1.118;2022-10-31T09:00:04;3.53;;;2.33;;
70667;SDS011;58242;51.250;-1.118;2022-10-31T09:02:30;3.80;;;2.72;;
70667;SDS011;58242;51.250;-1.118;2022-10-31T09:04:55;2.38;;;1.85;;
70667;SDS011;58242;51.250;-1.118;2022-10-31T09:07:21;3.80;;;1.88;;
70667;SDS011;58242;51.250;-1.118;2022-10-31T09:09:46;4.10;;;2.03;;
70667;SDS011;58242;51.250;-1.118;2022-10-31T09:12:11;2.22;;;2.03;;
70667;SDS011;58242;51.250;-1.118;2022-10-31T09:14:37;4.35;;;2.30;;
70667;SDS011;58242;51.250;-1.118;2022-10-31T09:17:02;1.90;;;1.80;;
70667;SDS011;58242;51.250;-1.118;2022-10-31T09:19:27;2.72;;;2.53;;
70667;SDS011;58242;51.250;-1.118;2022-10-31T09:21:53;3.50;;;2.88;;
70667;SDS011;58242;51.250;-1.118;2022-10-31T09:24:19;3.72;;;3.05;;
70667;SDS011;58242;51.250;-1.118;2022-10-31T09:26:44;2.83;;;2.63;;
70667;SDS011;58242;51.250;-1.118;2022-10-31T09:29:10;1.90;;;1.80;;
70667;SDS011;58242;51.250;-1.118;2022-10-31T09:31:35;1.98;;;1.77;;
70667;SDS011;58242;51.250;-1.118;2022-10-31T09:34:01;3.42;;;1.77;;
70667;SDS011;58242;51.250;-1.118;2022-10-31T09:36:26;3.20;;;1.48;;
70667;SDS011;58242;51.250;-1.118;2022-10-31T09:38:51;3.25;;;2.72;;
70667;SDS011;58242;51.250;-1.118;2022-10-31T09:44:35;2.85;;;2.53;;
70667;SDS011;58242;51.250;-1.118;2022-10-31T09:50:06;4.43;;;2.78;;
70667;SDS011;58242;51.250;-1.118;2022-10-31T09:53:09;2.50;;;2.30;;
70667;SDS011;58242;51.250;-1.118;2022-10-31T09:55:47;2.17;;;2.08;;
70667;SDS011;58242;51.250;-1.118;2022-10-31T09:58:15;2.97;;;1.90;;
70667;SDS011;58242;51.250;-1.118;2022-10-31T10:00:44;2.30;;;2.20;;
70667;SDS011;58242;51.250;-1.118;2022-10-31T10:03:16;2.40;;;2.20;;
70667;SDS011;58242;51.250;-1.118;2022-10-31T10:05:53;3.10;;;2.17;;
70667;SDS011;58242;51.250;-1.118;2022-10-31T10:08:26;2.20;;;1.95;;
70667;SDS011;58242;51.250;-1.118;2022-10-31T10:22:11;2.92;;;2.08;;
70667;SDS011;58242;51.250;-1.118;2022-10-31T10:25:00;5.07;;;1.67;;
70667;SDS011;58242;51.250;-1.118;2022-10-31T10:27:54;4.10;;;2.15;;
70667;SDS011;58242;51.250;-1.118;2022-10-31T10:30:32;2.33;;;1.73;;
70667;SDS011;58242;51.250;-1.118;2022-10-31T10:33:14;1.98;;;1.80;;
70667;SDS011;58242;51.250;-1.118;2022-10-31T10:35:47;2.58;;;2.00;;
70667;SDS011;58242;51.250;-1.118;2022-10-31T10:38:27;3.20;;;2.15;;
70667;SDS011;58242;51.250;-1.118;2022-10-31T10:40:57;3.10;;;1.67;;
70667;SDS011;58242;51.250;-1.118;2022-10-31T10:43:33;3.15;;;2.28;;
70667;SDS011;58242;51.250;-1.118;2022-10-31T10:51:58;2.20;;;1.80;;
70667;SDS011;58242;51.250;-1.118;2022-10-31T10:57:20;5.63;;;3.00;;
70667;SDS011;58242;51.250;-1.118;2022-10-31T10:59:52;2.30;;;2.03;;
70667;SDS011;58242;51.250;-1.118;2022-10-31T11:02:18;2.22;;;2.03;;
70667;SDS011;58242;51.250;-1.118;2022-10-31T11:04:47;1.88;;;1.77;;
70667;SDS011;58242;51.250;-1.118;2022-10-31T11:07:16;5.03;;;2.33;;
70667;SDS011;58242;51.250;-1.118;2022-10-31T11:09:41;3.92;;;2.53;;
70667;SDS011;58242;51.250;-1.118;2022-10-31T11:12:07;5.43;;;2.00;;
70667;SDS011;58242;51.250;-1.118;2022-10-31T11:14:44;4.13;;;2.28;;
70667;SDS011;58242;51.250;-1.118;2022-10-31T11:17:17;2.88;;;1.95;;
70667;SDS011;58242;51.250;-1.118;2022-10-31T11:22:43;3.40;;;2.38;;
70667;SDS011;58242;51.250;-1.118;2022-10-31T11:27:44;2.17;;;1.85;;
70667;SDS011;58242;51.250;-1.118;2022-10-31T11:30:23;2.22;;;2.10;;
70667;SDS011;58242;51.250;-1.118;2022-10-31T11:32:49;2.38;;;1.63;;
70667;SDS011;58242;51.250;-1.118;2022-10-31T11:35:17;2.30;;;1.83;;
70667;SDS011;58242;51.250;-1.118;2022-10-31T11:37:45;2.15;;;1.98;;
70667;SDS011;58242;51.250;-1.118;2022-10-31T11:40:22;1.40;;;1.40;;
70667;SDS011;58242;51.250;-1.118;2022-10-31T11:42:49;2.70;;;1.88;;
70667;SDS011;58242;51.250;-1.118;2022-10-31T11:47:49;4.75;;;1.70;;
70667;SDS011;58242;51.250;-1.118;2022-10-31T11:50:20;2.60;;;2.40;;
70667;SDS011;58242;51.250;-1.118;2022-10-31T11:52:48;2.33;;;2.10;;
70667;SDS011;58242;51.250;-1.118;2022-10-31T11:55:16;2.47;;;1.75;;
70667;SDS011;58242;51.250;-1.118;2022-10-31T11:57:54;1.75;;;1.58;;
70667;SDS011;58242;51.250;-1.118;2022-10-31T12:03:06;2.17;;;2.03;;
70667;SDS011;58242;51.250;-1.118;2022-10-31T12:05:49;3.28;;;1.85;;
70667;SDS011;58242;51.250;-1.118;2022-10-31T12:08:17;2.55;;;1.90;;
70667;SDS011;58242;51.250;-1.118;2022-10-31T12:10:51;3.42;;;2.08;;
70667;SDS011;58242;51.250;-1.118;2022-10-31T12:16:32;2.83;;;1.70;;
70667;SDS011;58242;51.250;-1.118;2022-10-31T12:19:06;2.22;;;2.10;;
70667;SDS011;58242;51.250;-1.118;2022-10-31T12:21:58;1.70;;;1.60;;
70667;SDS011;58242;51.250;-1.118;2022-10-31T12:26:57;2.08;;;1.90;;
70667;SDS011;58242;51.250;-1.118;2022-10-31T12:30:08;4.15;;;1.98;;
70667;SDS011;58242;51.250;-1.118;2022-10-31T12:32:35;2.72;;;2.30;;
70667;SDS011;58242;51.250;-1.118;2022-10-31T12:35:23;2.38;;;2.00;;
70667;SDS011;58242;51.250;-1.118;2022-10-31T12:40:20;2.45;;;2.00;;
70667;SDS011;58242;51.250;-1.118;2022-10-31T12:43:03;3.50;;;2.50;;
70667;SDS011;58242;51.250;-1.118;2022-10-31T12:48:30;1.80;;;1.70;;
70667;SDS011;58242;51.250;-1.118;2022-10-31T12:51:05;3.58;;;2.00;;
70667;SDS011;58242;51.250;-1.118;2022-10-31T12:53:40;4.38;;;2.20;;
70667;SDS011;58242;51.250;-1.118;2022-10-31T13:02:00;1.90;;;1.80;;
70667;SDS011;58242;51.250;-1.118;2022-10-31T13:04:40;2.60;;;2.00;;
70667;SDS011;58242;51.250;-1.118;2022-10-31T13:07:12;2.45;;;1.88;;
70667;SDS011;58242;51.250;-1.118;2022-10-31T13:09:53;1.75;;;1.65;;
70667;SDS011;58242;51.250;-1.118;2022-10-31T13:12:20;1.77;;;1.60;;
70667;SDS011;58242;51.250;-1.118;2022-10-31T13:15:01;1.92;;;1.77;;
70667;SDS011;58242;51.250;-1.118;2022-10-31T13:17:38;1.90;;;1.50;;
70667;SDS011;58242;51.250;-1.118;2022-10-31T13:22:55;2.15;;;1.90;;
70667;SDS011;58242;51.250;-1.118;2022-10-31T13:25:28;2.28;;;1.60;;
70667;SDS011;58242;51.250;-1.118;2022-10-31T13:28:02;1.75;;;1.65;;
70667;SDS011;58242;51.250;-1.118;2022-10-31T13:30:38;5.13;;;1.63;;
70667;SDS011;58242;51.250;-1.118;2022-10-31T13:35:46;3.25;;;1.98;;
70667;SDS011;58242;51.250;-1.118;2022-10-31T13:41:04;1.92;;;1.67;;
70667;SDS011;58242;51.250;-1.118;2022-10-31T13:43:56;2.20;;;1.80;;
70667;SDS011;58242;51.250;-1.118;2022-10-31T13:48:57;1.88;;;1.77;;
70667;SDS011;58242;51.250;-1.118;2022-10-31T13:51:24;2.50;;;1.73;;
70667;SDS011;58242;51.250;-1.118;2022-10-31T13:54:41;1.30;;;1.30;;
70667;SDS011;58242;51.250;-1.118;2022-10-31T13:56:49;2.03;;;1.60;;
70667;SDS011;58242;51.250;-1.118;2022-10-31T13:59:20;1.63;;;1.52;;
70667;SDS011;58242;51.250;-1.118;2022-10-31T14:01:51;1.92;;;1.80;;
70667;SDS011;58242;51.250;-1.118;2022-10-31T14:04:21;1.77;;;1.65;;
70667;SDS011;58242;51.250;-1.118;2022-10-31T14:06:56;1.92;;;1.70;;
70667;SDS011;58242;51.250;-1.118;2022-10-31T14:11:55;1.70;;;1.60;;
70667;SDS011;58242;51.250;-1.118;2022-10-31T14:16:54;1.60;;;1.48;;
70667;SDS011;58242;51.250;-1.118;2022-10-31T14:19:22;2.78;;;1.45;;
70667;SDS011;58242;51.250;-1.118;2022-10-31T14:21:48;2.95;;;1.67;;
70667;SDS011;58242;51.250;-1.118;2022-10-31T14:26:50;1.50;;;1.40;;
70667;SDS011;58242;51.250;-1.118;2022-10-31T14:31:43;1.40;;;1.35;;
70667;SDS011;58242;51.250;-1.118;2022-10-31T14:36:42;1.85;;;1.60;;
70667;SDS011;58242;51.250;-1.118;2022-10-31T14:39:15;1.83;;;1.73;;
70667;SDS011;58242;51.250;-1.118;2022-10-31T14:42:31;1.52;;;1.40;;
70667;SDS011;58242;51.250;-1.118;2022-10-31T14:53:08;3.10;;;1.63;;
70667;SDS011;58242;51.250;-1.118;2022-10-31T14:55:43;1.90;;;1.80;;
70667;SDS011;58242;51.250;-1.118;2022-10-31T14:58:13;2.05;;;1.70;;
70667;SDS011;58242;51.250;-1.118;2022-10-31T15:00:43;2.05;;;1.85;;
70667;SDS011;58242;51.250;-1.118;2022-10-31T15:05:41;2.67;;;1.65;;
70667;SDS011;58242;51.250;-1.118;2022-10-31T15:08:14;2.40;;;2.22;;
70667;SDS011;58242;51.250;-1.118;2022-10-31T15:10:59;1.80;;;1.70;;
70667;SDS011;58242;51.250;-1.118;2022-10-31T15:13:28;4.07;;;1.73;;
70667;SDS011;58242;51.250;-1.118;2022-10-31T15:15:54;1.92;;;1.83;;
70667;SDS011;58242;51.250;-1.118;2022-10-31T15:18:27;1.98;;;1.88;;
70667;SDS011;58242;51.250;-1.118;2022-10-31T15:20:54;2.47;;;1.63;;
70667;SDS011;58242;51.250;-1.118;2022-10-31T15:23:22;1.70;;;1.60;;
70667;SDS011;58242;51.250;-1.118;2022-10-31T15:25:50;1.77;;;1.73;;
70667;SDS011;58242;51.250;-1.118;2022-10-31T15:28:20;1.90;;;1.80;;
70667;SDS011;58242;51.250;-1.118;2022-10-31T15:30:52;2.35;;;1.80;;
70667;SDS011;58242;51.250;-1.118;2022-10-31T15:33:20;1.98;;;1.77;;
70667;SDS011;58242;51.250;-1.118;2022-10-31T15:35:56;3.75;;;2.17;;
70667;SDS011;58242;51.250;-1.118;2022-10-31T15:38:23;1.75;;;1.65;;
70667;SDS011;58242;51.250;-1.118;2022-10-31T15:40:53;1.90;;;1.80;;
70667;SDS011;58242;51.250;-1.118;2022-10-31T15:43:21;2.03;;;1.85;;
70667;SDS011;58242;51.250;-1.118;2022-10-31T15:45:47;2.35;;;2.15;;
70667;SDS011;58242;51.250;-1.118;2022-10-31T15:48:21;2.10;;;2.00;;
70667;SDS011;58242;51.250;-1.118;2022-10-31T15:53:35;2.42;;;2.22;;
70667;SDS011;58242;51.250;-1.118;2022-10-31T15:56:02;2.50;;;2.30;;
70667;SDS011;58242;51.250;-1.118;2022-10-31T15:58:32;3.42;;;2.28;;
70667;SDS011;58242;51.250;-1.118;2022-10-31T16:01:05;2.50;;;2.30;;
70667;SDS011;58242;51.250;-1.118;2022-10-31T16:06:19;2.78;;;2.40;;
70667;SDS011;58242;51.250;-1.118;2022-10-31T16:08:46;2.22;;;2.13;;
70667;SDS011;58242;51.250;-1.118;2022-10-31T16:11:15;2.50;;;2.30;;
70667;SDS011;58242;51.250;-1.118;2022-10-31T16:13:58;3.05;;;2.80;;
70667;SDS011;58242;51.250;-1.118;2022-10-31T16:16:27;2.15;;;2.05;;
70667;SDS011;58242;51.250;-1.118;2022-10-31T16:18:54;3.63;;;2.80;;
70667;SDS011;58242;51.250;-1.118;2022-10-31T16:21:24;2.47;;;2.38;;
70667;SDS011;58242;51.250;-1.118;2022-10-31T16:23:54;2.55;;;2.45;;
70667;SDS011;58242;51.250;-1.118;2022-10-31T16:26:24;2.20;;;2.10;;
70667;SDS011;58242;51.250;-1.118;2022-10-31T16:28:54;2.17;;;2.08;;
70667;SDS011;58242;51.250;-1.118;2022-10-31T16:31:26;2.40;;;2.30;;
70667;SDS011;58242;51.250;-1.118;2022-10-31T16:34:04;2.67;;;2.47;;
70667;SDS011;58242;51.250;-1.118;2022-10-31T16:36:38;2.72;;;2.55;;
70667;SDS011;58242;51.250;-1.118;2022-10-31T16:39:04;2.70;;;2.50;;
70667;SDS011;58242;51.250;-1.118;2022-10-31T16:41:31;2.90;;;2.70;;
70667;SDS011;58242;51.250;-1.118;2022-10-31T16:44:17;2.22;;;2.15;;
70667;SDS011;58242;51.250;-1.118;2022-10-31T16:46:45;2.60;;;2.40;;
70667;SDS011;58242;51.250;-1.118;2022-10-31T16:49:11;2.40;;;2.30;;
70667;SDS011;58242;51.250;-1.118;2022-10-31T16:51:36;2.90;;;2.80;;
70667;SDS011;58242;51.250;-1.118;2022-10-31T16:54:02;2.92;;;2.72;;
70667;SDS011;58242;51.250;-1.118;2022-10-31T16:56:28;2.85;;;2.65;;
70667;SDS011;58242;51.250;-1.118;2022-10-31T16:58:56;2.42;;;2.33;;